sensor_id;sensor_type;location;lat;lon;timestamp;temperature;humidity
6540;DHT22;50344;51.142;16.892;2023-11-21T00:01:27;21.70;60.10
6540;DHT22;50344;51.142;16.892;2023-11-21T00:03:52;21.70;60.10
6540;DHT22;50344;51.142;16.892;2023-11-21T00:06:21;21.70;60.20
6540;DHT22;50344;51.142;16.892;2023-11-21T00:08:46;21.70;60.10
6540;DHT22;50344;51.142;16.892;2023-11-21T00:11:12;21.70;60.00
6540;DHT22;50344;51.142;16.892;2023-11-21T00:13:37;21.70;59.90
6540;DHT22;50344;51.142;16.892;2023-11-21T00:16:03;21.70;60.00
6540;DHT22;50344;51.142;16.892;2023-11-21T00:18:29;21.70;60.10
6540;DHT22;50344;51.142;16.892;2023-11-21T00:20:55;21.70;60.00
6540;DHT22;50344;51.142;16.892;2023-11-21T00:23:20;21.80;60.30
6540;DHT22;50344;51.142;16.892;2023-11-21T00:25:46;21.70;60.00
6540;DHT22;50344;51.142;16.892;2023-11-21T00:28:11;21.70;59.90
6540;DHT22;50344;51.142;16.892;2023-11-21T00:30:37;21.70;60.00
6540;DHT22;50344;51.142;16.892;2023-11-21T00:33:03;21.70;59.60
6540;DHT22;50344;51.142;16.892;2023-11-21T00:35:29;21.70;60.00
6540;DHT22;50344;51.142;16.892;2023-11-21T00:37:55;21.70;59.50
6540;DHT22;50344;51.142;16.892;2023-11-21T00:40:21;21.70;59.80
6540;DHT22;50344;51.142;16.892;2023-11-21T00:42:47;21.70;59.50
6540;DHT22;50344;51.142;16.892;2023-11-21T00:45:13;21.70;59.90
6540;DHT22;50344;51.142;16.892;2023-11-21T00:47:38;21.70;59.60
6540;DHT22;50344;51.142;16.892;2023-11-21T00:50:04;21.70;60.00
6540;DHT22;50344;51.142;16.892;2023-11-21T00:52:31;21.70;59.60
6540;DHT22;50344;51.142;16.892;2023-11-21T00:54:59;21.70;59.60
6540;DHT22;50344;51.142;16.892;2023-11-21T00:57:26;21.70;59.70
6540;DHT22;50344;51.142;16.892;2023-11-21T00:59:51;21.70;59.60
6540;DHT22;50344;51.142;16.892;2023-11-21T01:02:17;21.70;59.50
6540;DHT22;50344;51.142;16.892;2023-11-21T01:04:42;21.70;59.30
6540;DHT22;50344;51.142;16.892;2023-11-21T01:07:08;21.70;59.80
6540;DHT22;50344;51.142;16.892;2023-11-21T01:09:34;22.20;59.90
6540;DHT22;50344;51.142;16.892;2023-11-21T01:12:00;21.70;59.50
6540;DHT22;50344;51.142;16.892;2023-11-21T01:14:26;21.70;59.60
6540;DHT22;50344;51.142;16.892;2023-11-21T01:16:54;21.70;59.40
6540;DHT22;50344;51.142;16.892;2023-11-21T01:19:19;21.70;59.60
6540;DHT22;50344;51.142;16.892;2023-11-21T01:21:45;21.70;59.70
6540;DHT22;50344;51.142;16.892;2023-11-21T01:24:10;21.70;59.50
6540;DHT22;50344;51.142;16.892;2023-11-21T01:26:36;21.70;59.30
6540;DHT22;50344;51.142;16.892;2023-11-21T01:29:02;21.70;59.30
6540;DHT22;50344;51.142;16.892;2023-11-21T01:31:27;21.70;59.50
6540;DHT22;50344;51.142;16.892;2023-11-21T01:33:55;21.70;59.20
6540;DHT22;50344;51.142;16.892;2023-11-21T01:36:20;21.70;59.50
6540;DHT22;50344;51.142;16.892;2023-11-21T01:38:46;21.70;59.30
6540;DHT22;50344;51.142;16.892;2023-11-21T01:41:13;21.70;59.90
6540;DHT22;50344;51.142;16.892;2023-11-21T01:43:39;21.80;59.80
6540;DHT22;50344;51.142;16.892;2023-11-21T01:46:05;21.70;59.40
6540;DHT22;50344;51.142;16.892;2023-11-21T01:48:31;21.70;59.20
6540;DHT22;50344;51.142;16.892;2023-11-21T01:50:57;21.70;59.50
6540;DHT22;50344;51.142;16.892;2023-11-21T01:53:24;21.70;59.20
6540;DHT22;50344;51.142;16.892;2023-11-21T01:55:49;21.70;59.10
6540;DHT22;50344;51.142;16.892;2023-11-21T01:58:15;21.70;59.00
6540;DHT22;50344;51.142;16.892;2023-11-21T02:00:41;21.70;59.20
6540;DHT22;50344;51.142;16.892;2023-11-21T02:03:07;21.70;59.20
6540;DHT22;50344;51.142;16.892;2023-11-21T02:05:33;21.70;59.00
6540;DHT22;50344;51.142;16.892;2023-11-21T02:07:58;21.70;59.10
6540;DHT22;50344;51.142;16.892;2023-11-21T02:10:24;21.70;59.20
6540;DHT22;50344;51.142;16.892;2023-11-21T02:12:49;21.70;59.20
6540;DHT22;50344;51.142;16.892;2023-11-21T02:15:18;21.70;58.80
6540;DHT22;50344;51.142;16.892;2023-11-21T02:17:46;21.70;59.20
6540;DHT22;50344;51.142;16.892;2023-11-21T02:20:12;21.70;58.60
6540;DHT22;50344;51.142;16.892;2023-11-21T02:22:41;21.70;58.80
6540;DHT22;50344;51.142;16.892;2023-11-21T02:25:07;21.60;58.90
6540;DHT22;50344;51.142;16.892;2023-11-21T02:27:33;21.70;58.80
6540;DHT22;50344;51.142;16.892;2023-11-21T02:29:58;21.70;58.70
6540;DHT22;50344;51.142;16.892;2023-11-21T02:32:25;21.70;58.70
6540;DHT22;50344;51.142;16.892;2023-11-21T02:34:51;21.70;58.80
6540;DHT22;50344;51.142;16.892;2023-11-21T02:37:16;21.70;58.80
6540;DHT22;50344;51.142;16.892;2023-11-21T02:39:42;21.70;58.80
6540;DHT22;50344;51.142;16.892;2023-11-21T02:42:08;21.70;59.00
6540;DHT22;50344;51.142;16.892;2023-11-21T02:44:33;21.60;58.80
6540;DHT22;50344;51.142;16.892;2023-11-21T02:47:00;21.70;58.80
6540;DHT22;50344;51.142;16.892;2023-11-21T02:49:25;21.70;58.70
6540;DHT22;50344;51.142;16.892;2023-11-21T02:51:54;21.70;58.70
6540;DHT22;50344;51.142;16.892;2023-11-21T02:54:20;21.70;58.90
6540;DHT22;50344;51.142;16.892;2023-11-21T02:56:47;21.50;58.60
6540;DHT22;50344;51.142;16.892;2023-11-21T02:59:13;21.70;58.80
6540;DHT22;50344;51.142;16.892;2023-11-21T03:01:38;21.70;58.70
6540;DHT22;50344;51.142;16.892;2023-11-21T03:04:04;21.70;58.80
6540;DHT22;50344;51.142;16.892;2023-11-21T03:06:29;21.60;58.50
6540;DHT22;50344;51.142;16.892;2023-11-21T03:08:55;21.80;58.80
6540;DHT22;50344;51.142;16.892;2023-11-21T03:11:20;21.70;58.50
6540;DHT22;50344;51.142;16.892;2023-11-21T03:13:46;21.70;58.70
6540;DHT22;50344;51.142;16.892;2023-11-21T03:16:12;21.70;58.80
6540;DHT22;50344;51.142;16.892;2023-11-21T03:18:38;21.70;58.50
6540;DHT22;50344;51.142;16.892;2023-11-21T03:21:06;21.70;58.50
6540;DHT22;50344;51.142;16.892;2023-11-21T03:23:35;21.70;57.90
6540;DHT22;50344;51.142;16.892;2023-11-21T03:26:01;21.70;58.60
6540;DHT22;50344;51.142;16.892;2023-11-21T03:28:27;21.70;58.60
6540;DHT22;50344;51.142;16.892;2023-11-21T03:30:53;21.70;58.70
6540;DHT22;50344;51.142;16.892;2023-11-21T03:33:18;21.60;58.50
6540;DHT22;50344;51.142;16.892;2023-11-21T03:35:44;21.70;58.40
6540;DHT22;50344;51.142;16.892;2023-11-21T03:38:10;21.70;58.50
6540;DHT22;50344;51.142;16.892;2023-11-21T03:40:35;21.70;58.40
6540;DHT22;50344;51.142;16.892;2023-11-21T03:43:01;21.70;58.40
6540;DHT22;50344;51.142;16.892;2023-11-21T03:45:26;21.60;58.50
6540;DHT22;50344;51.142;16.892;2023-11-21T03:47:52;21.70;58.40
6540;DHT22;50344;51.142;16.892;2023-11-21T03:50:17;21.70;58.70
6540;DHT22;50344;51.142;16.892;2023-11-21T03:52:43;21.70;58.30
6540;DHT22;50344;51.142;16.892;2023-11-21T03:55:09;21.70;58.40
6540;DHT22;50344;51.142;16.892;2023-11-21T03:57:36;21.70;58.30
6540;DHT22;50344;51.142;16.892;2023-11-21T04:00:01;21.70;58.50
6540;DHT22;50344;51.142;16.892;2023-11-21T04:02:29;21.60;58.30
6540;DHT22;50344;51.142;16.892;2023-11-21T04:04:56;21.60;58.30
6540;DHT22;50344;51.142;16.892;2023-11-21T04:07:22;21.60;58.20
6540;DHT22;50344;51.142;16.892;2023-11-21T04:09:47;21.70;58.40
6540;DHT22;50344;51.142;16.892;2023-11-21T04:12:13;21.60;58.40
6540;DHT22;50344;51.142;16.892;2023-11-21T04:14:39;21.60;58.30
6540;DHT22;50344;51.142;16.892;2023-11-21T04:17:04;21.60;58.30
6540;DHT22;50344;51.142;16.892;2023-11-21T04:19:30;21.60;58.40
6540;DHT22;50344;51.142;16.892;2023-11-21T04:21:55;21.60;58.10
6540;DHT22;50344;51.142;16.892;2023-11-21T04:24:21;21.30;58.20
6540;DHT22;50344;51.142;16.892;2023-11-21T04:26:46;21.60;58.10
6540;DHT22;50344;51.142;16.892;2023-11-21T04:29:12;21.70;58.10
6540;DHT22;50344;51.142;16.892;2023-11-21T04:31:37;21.60;58.40
6540;DHT22;50344;51.142;16.892;2023-11-21T04:34:03;21.60;58.00
6540;DHT22;50344;51.142;16.892;2023-11-21T04:36:29;21.60;58.10
6540;DHT22;50344;51.142;16.892;2023-11-21T04:38:56;21.50;57.90
6540;DHT22;50344;51.142;16.892;2023-11-21T04:41:21;21.60;57.90
6540;DHT22;50344;51.142;16.892;2023-11-21T04:43:47;21.50;57.90
6540;DHT22;50344;51.142;16.892;2023-11-21T04:46:13;21.60;58.10
6540;DHT22;50344;51.142;16.892;2023-11-21T04:48:38;21.60;57.90
6540;DHT22;50344;51.142;16.892;2023-11-21T04:51:04;21.60;57.90
6540;DHT22;50344;51.142;16.892;2023-11-21T04:53:30;21.60;58.00
6540;DHT22;50344;51.142;16.892;2023-11-21T04:55:55;21.80;58.30
6540;DHT22;50344;51.142;16.892;2023-11-21T04:58:21;21.60;57.90
6540;DHT22;50344;51.142;16.892;2023-11-21T05:00:46;21.60;58.00
6540;DHT22;50344;51.142;16.892;2023-11-21T05:03:12;21.60;57.80
6540;DHT22;50344;51.142;16.892;2023-11-21T05:05:37;21.60;57.90
6540;DHT22;50344;51.142;16.892;2023-11-21T05:08:03;21.60;57.90
6540;DHT22;50344;51.142;16.892;2023-11-21T05:10:30;21.60;58.00
6540;DHT22;50344;51.142;16.892;2023-11-21T05:12:55;21.60;58.30
6540;DHT22;50344;51.142;16.892;2023-11-21T05:15:21;21.60;57.90
6540;DHT22;50344;51.142;16.892;2023-11-21T05:17:47;21.60;58.10
6540;DHT22;50344;51.142;16.892;2023-11-21T05:20:17;21.60;58.10
6540;DHT22;50344;51.142;16.892;2023-11-21T05:22:46;21.60;58.20
6540;DHT22;50344;51.142;16.892;2023-11-21T05:25:12;21.70;58.50
6540;DHT22;50344;51.142;16.892;2023-11-21T05:27:37;21.70;58.30
6540;DHT22;50344;51.142;16.892;2023-11-21T05:30:03;21.70;59.10
6540;DHT22;50344;51.142;16.892;2023-11-21T05:32:32;21.70;58.90
6540;DHT22;50344;51.142;16.892;2023-11-21T05:34:58;21.70;59.20
6540;DHT22;50344;51.142;16.892;2023-11-21T05:37:24;21.70;59.00
6540;DHT22;50344;51.142;16.892;2023-11-21T05:39:52;21.70;59.30
6540;DHT22;50344;51.142;16.892;2023-11-21T05:42:18;21.70;59.30
6540;DHT22;50344;51.142;16.892;2023-11-21T05:44:43;21.70;59.20
6540;DHT22;50344;51.142;16.892;2023-11-21T05:47:09;21.70;59.40
6540;DHT22;50344;51.142;16.892;2023-11-21T05:49:35;21.70;59.30
6540;DHT22;50344;51.142;16.892;2023-11-21T05:52:01;21.70;59.30
6540;DHT22;50344;51.142;16.892;2023-11-21T05:54:26;21.70;59.40
6540;DHT22;50344;51.142;16.892;2023-11-21T05:56:52;21.60;59.30
6540;DHT22;50344;51.142;16.892;2023-11-21T05:59:18;21.70;59.10
6540;DHT22;50344;51.142;16.892;2023-11-21T06:01:43;21.70;59.10
6540;DHT22;50344;51.142;16.892;2023-11-21T06:04:11;21.60;59.10
6540;DHT22;50344;51.142;16.892;2023-11-21T06:06:36;21.70;59.00
6540;DHT22;50344;51.142;16.892;2023-11-21T06:09:02;21.50;59.10
6540;DHT22;50344;51.142;16.892;2023-11-21T06:11:27;21.70;59.10
6540;DHT22;50344;51.142;16.892;2023-11-21T06:13:53;21.70;59.30
6540;DHT22;50344;51.142;16.892;2023-11-21T06:16:19;21.70;59.50
6540;DHT22;50344;51.142;16.892;2023-11-21T06:18:45;21.70;59.10
6540;DHT22;50344;51.142;16.892;2023-11-21T06:21:11;21.70;59.30
6540;DHT22;50344;51.142;16.892;2023-11-21T06:23:36;21.70;58.90
6540;DHT22;50344;51.142;16.892;2023-11-21T06:26:02;21.70;58.80
6540;DHT22;50344;51.142;16.892;2023-11-21T06:28:29;21.70;58.70
6540;DHT22;50344;51.142;16.892;2023-11-21T06:30:56;21.70;58.60
6540;DHT22;50344;51.142;16.892;2023-11-21T06:33:23;21.70;58.60
6540;DHT22;50344;51.142;16.892;2023-11-21T06:35:48;21.70;58.50
6540;DHT22;50344;51.142;16.892;2023-11-21T06:38:15;21.70;58.30
6540;DHT22;50344;51.142;16.892;2023-11-21T06:40:40;21.70;58.20
6540;DHT22;50344;51.142;16.892;2023-11-21T06:43:06;21.80;58.40
6540;DHT22;50344;51.142;16.892;2023-11-21T06:45:33;21.70;58.20
6540;DHT22;50344;51.142;16.892;2023-11-21T06:47:59;21.70;58.00
6540;DHT22;50344;51.142;16.892;2023-11-21T06:50:25;21.70;57.90
6540;DHT22;50344;51.142;16.892;2023-11-21T06:52:50;21.70;57.80
6540;DHT22;50344;51.142;16.892;2023-11-21T06:55:16;21.60;57.90
6540;DHT22;50344;51.142;16.892;2023-11-21T06:57:41;21.60;57.90
6540;DHT22;50344;51.142;16.892;2023-11-21T07:00:08;21.60;57.80
6540;DHT22;50344;51.142;16.892;2023-11-21T07:02:34;21.60;57.60
6540;DHT22;50344;51.142;16.892;2023-11-21T07:04:59;21.60;57.70
6540;DHT22;50344;51.142;16.892;2023-11-21T07:07:25;21.60;57.80
6540;DHT22;50344;51.142;16.892;2023-11-21T07:09:50;21.60;57.60
6540;DHT22;50344;51.142;16.892;2023-11-21T07:12:17;21.60;57.70
6540;DHT22;50344;51.142;16.892;2023-11-21T07:14:43;21.60;57.60
6540;DHT22;50344;51.142;16.892;2023-11-21T07:17:13;21.60;57.60
6540;DHT22;50344;51.142;16.892;2023-11-21T07:19:38;21.60;56.80
6540;DHT22;50344;51.142;16.892;2023-11-21T07:22:04;21.60;57.40
6540;DHT22;50344;51.142;16.892;2023-11-21T07:24:31;21.60;57.50
6540;DHT22;50344;51.142;16.892;2023-11-21T07:26:57;21.60;57.40
6540;DHT22;50344;51.142;16.892;2023-11-21T07:29:26;21.60;57.40
6540;DHT22;50344;51.142;16.892;2023-11-21T07:31:54;21.60;57.30
6540;DHT22;50344;51.142;16.892;2023-11-21T07:34:20;21.60;57.20
6540;DHT22;50344;51.142;16.892;2023-11-21T07:36:46;21.60;57.30
6540;DHT22;50344;51.142;16.892;2023-11-21T07:39:12;21.60;57.30
6540;DHT22;50344;51.142;16.892;2023-11-21T07:41:37;21.60;57.20
6540;DHT22;50344;51.142;16.892;2023-11-21T07:44:10;21.60;57.10
6540;DHT22;50344;51.142;16.892;2023-11-21T07:46:35;21.60;57.10
6540;DHT22;50344;51.142;16.892;2023-11-21T07:49:01;21.60;57.20
6540;DHT22;50344;51.142;16.892;2023-11-21T07:51:26;21.50;56.90
6540;DHT22;50344;51.142;16.892;2023-11-21T07:53:52;21.60;57.00
6540;DHT22;50344;51.142;16.892;2023-11-21T07:56:17;21.50;56.90
6540;DHT22;50344;51.142;16.892;2023-11-21T07:58:43;21.50;56.90
6540;DHT22;50344;51.142;16.892;2023-11-21T08:01:10;21.60;56.90
6540;DHT22;50344;51.142;16.892;2023-11-21T08:03:35;21.50;56.80
6540;DHT22;50344;51.142;16.892;2023-11-21T08:06:01;21.60;57.00
6540;DHT22;50344;51.142;16.892;2023-11-21T08:08:28;21.60;56.90
6540;DHT22;50344;51.142;16.892;2023-11-21T08:10:54;21.60;56.70
6540;DHT22;50344;51.142;16.892;2023-11-21T08:13:23;21.60;56.30
6540;DHT22;50344;51.142;16.892;2023-11-21T08:15:48;21.50;56.60
6540;DHT22;50344;51.142;16.892;2023-11-21T08:18:14;21.50;56.70
6540;DHT22;50344;51.142;16.892;2023-11-21T08:20:40;21.50;56.70
6540;DHT22;50344;51.142;16.892;2023-11-21T08:23:05;21.50;56.50
6540;DHT22;50344;51.142;16.892;2023-11-21T08:25:34;21.50;56.50
6540;DHT22;50344;51.142;16.892;2023-11-21T08:28:00;21.60;55.90
6540;DHT22;50344;51.142;16.892;2023-11-21T08:30:26;21.60;56.60
6540;DHT22;50344;51.142;16.892;2023-11-21T08:32:55;21.50;56.60
6540;DHT22;50344;51.142;16.892;2023-11-21T08:35:23;21.50;56.60
6540;DHT22;50344;51.142;16.892;2023-11-21T08:37:52;21.50;56.40
6540;DHT22;50344;51.142;16.892;2023-11-21T08:40:20;21.60;56.50
6540;DHT22;50344;51.142;16.892;2023-11-21T08:42:46;21.60;56.50
6540;DHT22;50344;51.142;16.892;2023-11-21T08:45:13;21.60;56.50
6540;DHT22;50344;51.142;16.892;2023-11-21T08:47:39;21.60;56.40
6540;DHT22;50344;51.142;16.892;2023-11-21T08:50:05;21.50;56.40
6540;DHT22;50344;51.142;16.892;2023-11-21T08:52:33;21.60;56.10
6540;DHT22;50344;51.142;16.892;2023-11-21T08:54:58;21.60;56.40
6540;DHT22;50344;51.142;16.892;2023-11-21T08:57:28;21.60;56.40
6540;DHT22;50344;51.142;16.892;2023-11-21T08:59:53;21.60;56.40
6540;DHT22;50344;51.142;16.892;2023-11-21T09:02:21;21.60;56.40
6540;DHT22;50344;51.142;16.892;2023-11-21T09:04:48;21.60;56.30
6540;DHT22;50344;51.142;16.892;2023-11-21T09:07:14;21.60;56.20
6540;DHT22;50344;51.142;16.892;2023-11-21T09:09:39;21.60;56.20
6540;DHT22;50344;51.142;16.892;2023-11-21T09:12:05;21.60;56.30
6540;DHT22;50344;51.142;16.892;2023-11-21T09:14:31;21.50;56.00
6540;DHT22;50344;51.142;16.892;2023-11-21T09:16:56;21.50;56.20
6540;DHT22;50344;51.142;16.892;2023-11-21T09:19:22;21.60;56.30
6540;DHT22;50344;51.142;16.892;2023-11-21T09:21:47;21.50;56.00
6540;DHT22;50344;51.142;16.892;2023-11-21T09:24:13;21.60;56.10
6540;DHT22;50344;51.142;16.892;2023-11-21T09:26:38;21.90;56.30
6540;DHT22;50344;51.142;16.892;2023-11-21T09:29:04;21.50;56.00
6540;DHT22;50344;51.142;16.892;2023-11-21T09:31:29;21.60;56.10
6540;DHT22;50344;51.142;16.892;2023-11-21T09:33:56;21.60;56.10
6540;DHT22;50344;51.142;16.892;2023-11-21T09:36:22;21.50;56.10
6540;DHT22;50344;51.142;16.892;2023-11-21T09:38:52;21.50;56.00
6540;DHT22;50344;51.142;16.892;2023-11-21T09:41:26;21.60;55.90
6540;DHT22;50344;51.142;16.892;2023-11-21T09:44:00;21.50;55.30
6540;DHT22;50344;51.142;16.892;2023-11-21T09:46:27;21.60;56.00
6540;DHT22;50344;51.142;16.892;2023-11-21T09:48:53;21.50;55.90
6540;DHT22;50344;51.142;16.892;2023-11-21T09:51:21;21.60;55.80
6540;DHT22;50344;51.142;16.892;2023-11-21T09:53:52;21.60;55.90
6540;DHT22;50344;51.142;16.892;2023-11-21T09:56:18;21.60;55.90
6540;DHT22;50344;51.142;16.892;2023-11-21T09:58:50;21.50;55.80
6540;DHT22;50344;51.142;16.892;2023-11-21T10:01:16;21.60;55.80
6540;DHT22;50344;51.142;16.892;2023-11-21T10:03:42;21.60;55.80
6540;DHT22;50344;51.142;16.892;2023-11-21T10:06:07;21.50;55.60
6540;DHT22;50344;51.142;16.892;2023-11-21T10:08:33;21.50;55.60
6540;DHT22;50344;51.142;16.892;2023-11-21T10:10:59;21.80;56.00
6540;DHT22;50344;51.142;16.892;2023-11-21T10:13:25;21.50;55.80
6540;DHT22;50344;51.142;16.892;2023-11-21T10:15:52;21.60;55.90
6540;DHT22;50344;51.142;16.892;2023-11-21T10:18:18;21.50;55.60
6540;DHT22;50344;51.142;16.892;2023-11-21T10:20:44;21.50;55.60
6540;DHT22;50344;51.142;16.892;2023-11-21T10:23:18;21.50;55.60
6540;DHT22;50344;51.142;16.892;2023-11-21T10:25:44;21.50;55.60
6540;DHT22;50344;51.142;16.892;2023-11-21T10:28:09;21.50;55.70
6540;DHT22;50344;51.142;16.892;2023-11-21T10:30:36;21.50;55.60
6540;DHT22;50344;51.142;16.892;2023-11-21T10:33:03;21.50;55.50
6540;DHT22;50344;51.142;16.892;2023-11-21T10:35:38;21.60;55.60
6540;DHT22;50344;51.142;16.892;2023-11-21T10:38:04;21.60;54.90
6540;DHT22;50344;51.142;16.892;2023-11-21T10:40:29;21.70;55.70
6540;DHT22;50344;51.142;16.892;2023-11-21T10:42:55;21.60;55.60
6540;DHT22;50344;51.142;16.892;2023-11-21T10:45:31;21.50;55.50
6540;DHT22;50344;51.142;16.892;2023-11-21T10:47:56;21.50;55.40
6540;DHT22;50344;51.142;16.892;2023-11-21T10:50:22;21.60;55.40
6540;DHT22;50344;51.142;16.892;2023-11-21T10:52:48;21.60;55.50
6540;DHT22;50344;51.142;16.892;2023-11-21T10:55:20;21.60;55.50
6540;DHT22;50344;51.142;16.892;2023-11-21T10:57:53;21.50;54.60
6540;DHT22;50344;51.142;16.892;2023-11-21T11:00:19;21.50;54.70
6540;DHT22;50344;51.142;16.892;2023-11-21T11:02:50;21.50;55.30
6540;DHT22;50344;51.142;16.892;2023-11-21T11:05:16;21.60;54.80
6540;DHT22;50344;51.142;16.892;2023-11-21T11:07:44;21.30;55.00
6540;DHT22;50344;51.142;16.892;2023-11-21T11:10:10;21.50;55.20
6540;DHT22;50344;51.142;16.892;2023-11-21T11:12:40;21.50;55.10
6540;DHT22;50344;51.142;16.892;2023-11-21T11:15:06;21.60;55.30
6540;DHT22;50344;51.142;16.892;2023-11-21T11:17:36;21.60;55.10
6540;DHT22;50344;51.142;16.892;2023-11-21T11:20:04;21.60;55.30
6540;DHT22;50344;51.142;16.892;2023-11-21T11:32:53;21.50;54.40
6540;DHT22;50344;51.142;16.892;2023-11-21T11:35:26;21.60;54.50
6540;DHT22;50344;51.142;16.892;2023-11-21T11:37:54;21.60;54.40
6540;DHT22;50344;51.142;16.892;2023-11-21T11:40:20;21.50;55.10
6540;DHT22;50344;51.142;16.892;2023-11-21T11:42:56;21.50;55.00
6540;DHT22;50344;51.142;16.892;2023-11-21T11:45:23;21.50;55.00
6540;DHT22;50344;51.142;16.892;2023-11-21T11:47:56;21.60;55.10
6540;DHT22;50344;51.142;16.892;2023-11-21T11:50:22;21.50;54.90
6540;DHT22;50344;51.142;16.892;2023-11-21T11:52:48;21.50;54.90
6540;DHT22;50344;51.142;16.892;2023-11-21T11:55:16;21.60;54.90
6540;DHT22;50344;51.142;16.892;2023-11-21T11:57:48;21.50;54.80
6540;DHT22;50344;51.142;16.892;2023-11-21T12:02:56;21.50;54.20
6540;DHT22;50344;51.142;16.892;2023-11-21T12:05:27;21.60;54.90
6540;DHT22;50344;51.142;16.892;2023-11-21T12:08:02;21.50;54.40
6540;DHT22;50344;51.142;16.892;2023-11-21T12:10:32;21.50;54.80
6540;DHT22;50344;51.142;16.892;2023-11-21T12:12:59;21.50;54.10
6540;DHT22;50344;51.142;16.892;2023-11-21T12:15:25;21.50;54.90
6540;DHT22;50344;51.142;16.892;2023-11-21T12:17:51;21.50;54.80
6540;DHT22;50344;51.142;16.892;2023-11-21T12:20:20;21.50;54.80
6540;DHT22;50344;51.142;16.892;2023-11-21T12:22:47;21.50;54.00
6540;DHT22;50344;51.142;16.892;2023-11-21T12:25:16;21.50;54.70
6540;DHT22;50344;51.142;16.892;2023-11-21T12:27:47;21.50;54.70
6540;DHT22;50344;51.142;16.892;2023-11-21T12:30:15;21.50;54.60
6540;DHT22;50344;51.142;16.892;2023-11-21T12:32:42;21.50;54.60
6540;DHT22;50344;51.142;16.892;2023-11-21T12:35:11;21.50;54.70
6540;DHT22;50344;51.142;16.892;2023-11-21T12:37:40;21.50;53.90
6540;DHT22;50344;51.142;16.892;2023-11-21T12:40:08;21.50;54.60
6540;DHT22;50344;51.142;16.892;2023-11-21T12:42:40;21.60;54.50
6540;DHT22;50344;51.142;16.892;2023-11-21T12:47:44;21.50;53.90
6540;DHT22;50344;51.142;16.892;2023-11-21T12:50:10;21.50;54.70
6540;DHT22;50344;51.142;16.892;2023-11-21T12:52:44;21.50;54.50
6540;DHT22;50344;51.142;16.892;2023-11-21T12:55:13;21.40;54.50
6540;DHT22;50344;51.142;16.892;2023-11-21T12:57:47;21.50;54.60
6540;DHT22;50344;51.142;16.892;2023-11-21T13:00:15;21.50;53.90
6540;DHT22;50344;51.142;16.892;2023-11-21T13:02:55;21.50;54.40
6540;DHT22;50344;51.142;16.892;2023-11-21T13:05:25;21.50;53.80
6540;DHT22;50344;51.142;16.892;2023-11-21T13:07:50;21.50;54.50
6540;DHT22;50344;51.142;16.892;2023-11-21T13:10:20;21.50;54.50
6540;DHT22;50344;51.142;16.892;2023-11-21T13:12:45;21.50;54.50
6540;DHT22;50344;51.142;16.892;2023-11-21T13:15:16;21.50;54.40
6540;DHT22;50344;51.142;16.892;2023-11-21T13:17:42;21.50;53.80
6540;DHT22;50344;51.142;16.892;2023-11-21T13:20:10;21.50;54.50
6540;DHT22;50344;51.142;16.892;2023-11-21T13:22:53;21.50;54.40
6540;DHT22;50344;51.142;16.892;2023-11-21T13:25:23;21.50;53.70
6540;DHT22;50344;51.142;16.892;2023-11-21T13:27:49;21.50;53.90
6540;DHT22;50344;51.142;16.892;2023-11-21T13:30:15;21.50;54.40
6540;DHT22;50344;51.142;16.892;2023-11-21T13:32:42;21.50;54.40
6540;DHT22;50344;51.142;16.892;2023-11-21T13:35:07;21.50;54.50
6540;DHT22;50344;51.142;16.892;2023-11-21T13:37:39;21.50;54.40
6540;DHT22;50344;51.142;16.892;2023-11-21T13:40:05;21.70;54.60
6540;DHT22;50344;51.142;16.892;2023-11-21T13:42:40;21.50;53.90
6540;DHT22;50344;51.142;16.892;2023-11-21T13:45:06;21.50;54.30
6540;DHT22;50344;51.142;16.892;2023-11-21T13:47:31;21.50;55.00
6540;DHT22;50344;51.142;16.892;2023-11-21T13:49:59;21.60;54.40
6540;DHT22;50344;51.142;16.892;2023-11-21T13:52:26;21.50;54.40
6540;DHT22;50344;51.142;16.892;2023-11-21T13:54:53;21.50;54.30
6540;DHT22;50344;51.142;16.892;2023-11-21T13:57:19;21.50;54.40
6540;DHT22;50344;51.142;16.892;2023-11-21T13:59:45;21.30;54.20
6540;DHT22;50344;51.142;16.892;2023-11-21T14:02:11;21.50;54.40
6540;DHT22;50344;51.142;16.892;2023-11-21T14:04:43;21.50;53.80
6540;DHT22;50344;51.142;16.892;2023-11-21T14:07:15;21.50;54.10
6540;DHT22;50344;51.142;16.892;2023-11-21T14:09:52;21.50;53.70
6540;DHT22;50344;51.142;16.892;2023-11-21T14:12:18;21.50;54.30
6540;DHT22;50344;51.142;16.892;2023-11-21T14:14:43;21.50;54.30
6540;DHT22;50344;51.142;16.892;2023-11-21T14:17:12;21.50;54.00
6540;DHT22;50344;51.142;16.892;2023-11-21T14:19:38;21.50;54.40
6540;DHT22;50344;51.142;16.892;2023-11-21T14:22:11;21.50;54.30
6540;DHT22;50344;51.142;16.892;2023-11-21T14:24:37;21.50;54.20
6540;DHT22;50344;51.142;16.892;2023-11-21T14:27:02;21.40;54.20
6540;DHT22;50344;51.142;16.892;2023-11-21T14:29:28;21.40;54.10
6540;DHT22;50344;51.142;16.892;2023-11-21T14:31:55;21.40;54.00
6540;DHT22;50344;51.142;16.892;2023-11-21T14:34:23;21.40;54.00
6540;DHT22;50344;51.142;16.892;2023-11-21T14:36:51;21.50;54.20
6540;DHT22;50344;51.142;16.892;2023-11-21T14:39:17;21.50;54.20
6540;DHT22;50344;51.142;16.892;2023-11-21T14:41:51;21.50;53.70
6540;DHT22;50344;51.142;16.892;2023-11-21T14:44:24;21.50;54.20
6540;DHT22;50344;51.142;16.892;2023-11-21T14:46:54;20.90;53.70
6540;DHT22;50344;51.142;16.892;2023-11-21T14:49:21;21.40;54.40
6540;DHT22;50344;51.142;16.892;2023-11-21T14:51:49;21.50;54.00
6540;DHT22;50344;51.142;16.892;2023-11-21T14:54:42;21.40;54.80
6540;DHT22;50344;51.142;16.892;2023-11-21T14:57:14;21.40;54.10
6540;DHT22;50344;51.142;16.892;2023-11-21T14:59:44;21.50;54.20
6540;DHT22;50344;51.142;16.892;2023-11-21T15:02:14;21.40;54.00
6540;DHT22;50344;51.142;16.892;2023-11-21T15:04:41;21.40;54.10
6540;DHT22;50344;51.142;16.892;2023-11-21T15:07:07;21.40;54.00
6540;DHT22;50344;51.142;16.892;2023-11-21T15:09:33;21.40;54.00
6540;DHT22;50344;51.142;16.892;2023-11-21T15:11:59;21.40;54.00
6540;DHT22;50344;51.142;16.892;2023-11-21T15:14:37;21.50;54.00
6540;DHT22;50344;51.142;16.892;2023-11-21T15:17:03;21.40;54.00
6540;DHT22;50344;51.142;16.892;2023-11-21T15:19:28;21.40;53.80
6540;DHT22;50344;51.142;16.892;2023-11-21T15:21:56;21.40;53.90
6540;DHT22;50344;51.142;16.892;2023-11-21T15:24:22;21.40;53.80
6540;DHT22;50344;51.142;16.892;2023-11-21T15:26:47;21.40;53.80
6540;DHT22;50344;51.142;16.892;2023-11-21T15:29:13;21.40;53.70
6540;DHT22;50344;51.142;16.892;2023-11-21T15:31:40;21.40;53.70
6540;DHT22;50344;51.142;16.892;2023-11-21T15:34:11;21.40;53.70
6540;DHT22;50344;51.142;16.892;2023-11-21T15:36:36;21.40;53.60
6540;DHT22;50344;51.142;16.892;2023-11-21T15:39:02;21.40;53.70
6540;DHT22;50344;51.142;16.892;2023-11-21T15:41:28;21.40;53.60
6540;DHT22;50344;51.142;16.892;2023-11-21T15:43:53;21.40;53.70